createdAt,value
2022-12-03T00:01:40.612Z,7.87
2022-12-03T00:04:27.347Z,9.27
2022-12-03T00:07:13.741Z,7.67
2022-12-03T00:10:00.167Z,7.30
2022-12-03T00:12:47.283Z,7.47
2022-12-03T00:15:33.807Z,8.70
2022-12-03T00:18:20.290Z,8.60
2022-12-03T00:21:06.910Z,9.03
2022-12-03T00:23:53.435Z,8.03
2022-12-03T00:26:39.948Z,7.83
2022-12-03T00:29:27.214Z,9.80
2022-12-03T00:32:14.150Z,7.17
2022-12-03T00:35:00.894Z,7.87
2022-12-03T00:37:47.558Z,8.00
2022-12-03T00:40:34.955Z,7.67
2022-12-03T00:43:21.322Z,9.10
2022-12-03T00:46:07.786Z,7.40
2022-12-03T00:48:54.511Z,8.73
2022-12-03T00:51:41.185Z,7.27
2022-12-03T00:54:31.832Z,7.63
2022-12-03T00:57:18.793Z,7.93
2022-12-03T01:00:06.173Z,7.20
2022-12-03T01:02:52.875Z,6.30
2022-12-03T01:05:39.531Z,6.70
2022-12-03T01:08:25.858Z,7.13
2022-12-03T01:11:30.814Z,7.87
2022-12-03T01:14:19.590Z,6.17
2022-12-03T01:17:06.814Z,6.40
2022-12-03T01:19:53.343Z,8.40
2022-12-03T01:22:39.695Z,8.57
2022-12-03T01:25:26.294Z,6.77
2022-12-03T01:28:12.701Z,7.27
2022-12-03T01:31:17.741Z,8.67
2022-12-03T01:34:04.827Z,7.77
2022-12-03T01:36:53.742Z,7.23
2022-12-03T01:39:40.475Z,7.37
2022-12-03T01:42:31.497Z,8.03
2022-12-03T01:45:23.672Z,8.73
2022-12-03T01:48:16.676Z,7.90
2022-12-03T01:51:03.522Z,7.27
2022-12-03T01:53:50.244Z,7.83
2022-12-03T01:56:36.868Z,7.20
2022-12-03T01:59:36.250Z,7.90
2022-12-03T02:02:32.614Z,7.03
2022-12-03T02:05:26.293Z,7.17
2022-12-03T02:08:32.394Z,6.80
2022-12-03T02:11:41.095Z,7.20
2022-12-03T02:14:28.279Z,7.50
2022-12-03T02:17:15.017Z,7.87
2022-12-03T02:20:04.640Z,7.50
2022-12-03T02:22:51.415Z,7.27
2022-12-03T02:25:38.337Z,7.63
2022-12-03T02:28:25.123Z,7.47
2022-12-03T02:31:11.977Z,7.10
2022-12-03T02:33:58.655Z,6.43
2022-12-03T02:36:45.031Z,7.27
2022-12-03T02:39:33.643Z,6.70
2022-12-03T02:42:36.038Z,7.77
2022-12-03T02:45:29.184Z,8.33
2022-12-03T02:48:37.266Z,6.67
2022-12-03T02:51:23.978Z,6.67
2022-12-03T02:54:10.341Z,5.73
2022-12-03T02:56:56.739Z,7.23
2022-12-03T02:59:45.197Z,6.20
2022-12-03T03:02:32.339Z,6.27
2022-12-03T03:05:21.849Z,7.33
2022-12-03T03:08:09.542Z,7.07
2022-12-03T03:10:57.083Z,6.03
2022-12-03T03:13:43.790Z,6.80
2022-12-03T03:16:30.501Z,8.07
2022-12-03T03:19:17.797Z,6.33
2022-12-03T03:22:04.465Z,6.90
2022-12-03T03:24:51.057Z,6.67
2022-12-03T03:27:38.804Z,7.30
2022-12-03T03:30:25.098Z,7.67
2022-12-03T03:33:13.294Z,6.90
2022-12-03T03:36:00.941Z,7.23
2022-12-03T03:38:47.829Z,6.00
2022-12-03T03:41:35.296Z,6.80
2022-12-03T03:44:22.164Z,6.23
2022-12-03T03:47:08.918Z,5.87
2022-12-03T03:49:55.781Z,6.53
2022-12-03T03:52:43.119Z,6.10
2022-12-03T03:55:31.076Z,6.20
2022-12-03T03:58:17.703Z,7.53
2022-12-03T04:01:04.339Z,7.27
2022-12-03T04:03:53.589Z,7.50
2022-12-03T04:06:40.030Z,7.67
2022-12-03T04:09:26.415Z,6.97
2022-12-03T04:12:32.004Z,7.40
2022-12-03T04:15:20.083Z,6.90
2022-12-03T04:18:25.284Z,6.70
2022-12-03T04:21:33.563Z,6.07
2022-12-03T04:24:20.122Z,7.80
2022-12-03T04:27:25.240Z,9.20
2022-12-03T04:30:12.036Z,7.93
2022-12-03T04:33:16.884Z,8.93
2022-12-03T04:36:03.377Z,8.93
2022-12-03T04:38:49.684Z,8.80
2022-12-03T04:41:36.277Z,8.43
2022-12-03T04:44:37.609Z,7.80
2022-12-03T04:47:24.408Z,8.33
2022-12-03T04:50:11.257Z,9.10
2022-12-03T04:52:57.717Z,8.73
2022-12-03T04:55:44.180Z,7.87
2022-12-03T04:58:30.761Z,8.03
2022-12-03T05:01:17.110Z,8.93
2022-12-03T05:04:04.107Z,8.77
2022-12-03T05:06:50.795Z,7.87
2022-12-03T05:09:37.448Z,9.17
2022-12-03T05:12:23.748Z,9.40
2022-12-03T05:15:10.354Z,9.00
2022-12-03T05:17:57.041Z,9.30
2022-12-03T05:20:49.658Z,11.10
2022-12-03T05:23:39.258Z,9.00
2022-12-03T05:26:25.855Z,9.73
2022-12-03T05:29:12.383Z,9.97
2022-12-03T05:31:59.188Z,9.13
2022-12-03T05:34:45.547Z,8.30
2022-12-03T05:37:31.825Z,10.00
2022-12-03T05:40:18.559Z,10.67
2022-12-03T05:43:05.315Z,9.03
2022-12-03T05:45:51.744Z,9.27
2022-12-03T05:48:38.417Z,10.97
2022-12-03T05:51:24.769Z,10.83
2022-12-03T05:54:11.094Z,10.67
2022-12-03T05:56:57.287Z,9.20
2022-12-03T05:59:43.691Z,9.57
2022-12-03T06:02:30.093Z,10.00
2022-12-03T06:05:20.139Z,10.20
2022-12-03T06:08:06.966Z,9.30
2022-12-03T06:10:53.646Z,11.33
2022-12-03T06:13:40.328Z,9.93
2022-12-03T06:16:27.021Z,10.40
2022-12-03T06:19:13.702Z,11.63
2022-12-03T06:22:00.011Z,10.47
2022-12-03T06:24:46.697Z,12.57
2022-12-03T06:27:33.179Z,11.20
2022-12-03T06:30:19.633Z,11.17
2022-12-03T06:33:06.337Z,12.33
2022-12-03T06:35:52.691Z,11.27
2022-12-03T06:38:38.975Z,11.00
2022-12-03T06:41:25.763Z,11.60
2022-12-03T06:44:12.305Z,12.20
2022-12-03T06:46:58.868Z,11.83
2022-12-03T06:49:45.478Z,11.47
2022-12-03T06:52:31.740Z,13.63
2022-12-03T06:55:20.351Z,11.40
2022-12-03T06:58:07.158Z,10.63
2022-12-03T07:00:54.341Z,13.50
2022-12-03T07:03:40.622Z,13.13
2022-12-03T07:06:27.374Z,11.90
2022-12-03T07:09:16.283Z,12.93
2022-12-03T07:12:02.861Z,12.20
2022-12-03T07:14:49.297Z,12.50
2022-12-03T07:17:35.746Z,12.90
2022-12-03T07:20:22.005Z,16.40
2022-12-03T07:23:15.341Z,13.43
2022-12-03T07:26:01.836Z,12.60
2022-12-03T07:28:48.336Z,12.87
2022-12-03T07:31:35.184Z,12.10
2022-12-03T07:34:21.951Z,13.13
2022-12-03T07:37:08.357Z,10.77
2022-12-03T07:39:54.649Z,12.47
2022-12-03T07:42:40.978Z,12.03
2022-12-03T07:45:27.766Z,12.57
2022-12-03T07:48:14.348Z,11.57
2022-12-03T07:51:00.723Z,12.93
2022-12-03T07:53:47.194Z,12.40
2022-12-03T07:56:33.814Z,13.60
2022-12-03T07:59:21.225Z,13.43
2022-12-03T08:02:09.217Z,13.63
2022-12-03T08:04:56.133Z,12.80
2022-12-03T08:07:43.023Z,11.60
2022-12-03T08:10:32.595Z,12.60
2022-12-03T08:13:19.292Z,11.43
2022-12-03T08:16:15.829Z,11.23
2022-12-03T08:19:02.464Z,11.17
2022-12-03T08:21:53.129Z,10.90
2022-12-03T08:24:43.704Z,12.70
2022-12-03T08:27:30.754Z,13.50
2022-12-03T08:30:18.188Z,13.27
2022-12-03T08:33:23.742Z,11.23
2022-12-03T08:36:18.788Z,12.57
2022-12-03T08:39:30.274Z,12.80
2022-12-03T08:42:36.647Z,11.90
2022-12-03T08:45:29.147Z,11.10
2022-12-03T08:48:34.950Z,13.50
2022-12-03T08:51:25.356Z,13.07
2022-12-03T08:54:19.339Z,11.17
2022-12-03T08:57:27.799Z,13.43
2022-12-03T09:00:23.781Z,12.77
2022-12-03T09:03:15.993Z,12.83
2022-12-03T09:06:02.704Z,13.40
2022-12-03T09:08:50.168Z,12.63
2022-12-03T09:11:36.975Z,11.23
2022-12-03T09:14:23.811Z,11.67
2022-12-03T09:17:10.410Z,12.17
2022-12-03T09:19:57.087Z,13.90
2022-12-03T09:22:43.529Z,12.53
2022-12-03T09:25:29.779Z,10.57
2022-12-03T09:28:15.984Z,11.93
2022-12-03T09:31:02.290Z,12.67
2022-12-03T09:33:48.856Z,10.90
2022-12-03T09:36:35.578Z,11.13
2022-12-03T09:39:22.403Z,13.57
2022-12-03T09:42:09.784Z,12.67
2022-12-03T09:44:56.457Z,10.40
2022-12-03T09:47:48.956Z,12.90
2022-12-03T09:50:40.731Z,11.60
2022-12-03T09:53:27.494Z,12.60
2022-12-03T09:56:20.398Z,12.27
2022-12-03T09:59:13.910Z,14.43
2022-12-03T10:02:01.735Z,12.80
2022-12-03T10:04:49.153Z,11.30
2022-12-03T10:07:35.942Z,12.07
2022-12-03T10:10:25.202Z,11.13
2022-12-03T10:13:25.461Z,12.83
2022-12-03T10:16:16.059Z,11.57
2022-12-03T10:19:02.842Z,11.77
2022-12-03T10:21:50.788Z,11.53
2022-12-03T10:24:38.136Z,12.13
2022-12-03T10:27:30.322Z,10.73
2022-12-03T10:30:20.344Z,12.13
2022-12-03T10:33:18.901Z,12.60
2022-12-03T10:36:26.564Z,11.37
2022-12-03T10:39:16.295Z,10.20
2022-12-03T10:42:16.148Z,10.33
2022-12-03T10:45:16.319Z,10.80
2022-12-03T10:48:11.052Z,9.83
2022-12-03T10:51:07.143Z,8.70
2022-12-03T10:53:54.403Z,8.30
2022-12-03T10:56:40.933Z,8.57
2022-12-03T10:59:32.881Z,8.87
2022-12-03T11:02:22.711Z,9.37
2022-12-03T11:05:15.798Z,7.77
2022-12-03T11:08:03.984Z,8.93
2022-12-03T11:11:05.861Z,8.20
2022-12-03T11:13:57.526Z,8.30
2022-12-03T11:16:47.151Z,8.53
2022-12-03T11:19:36.396Z,9.63
2022-12-03T11:22:27.110Z,8.80
2022-12-03T11:25:28.401Z,8.70
2022-12-03T11:28:14.740Z,9.07
2022-12-03T11:31:09.179Z,6.03
2022-12-03T11:34:18.277Z,6.93
2022-12-03T11:37:10.972Z,6.60
2022-12-03T11:40:00.618Z,6.17
2022-12-03T11:42:48.869Z,7.23
2022-12-03T11:45:38.161Z,7.87
2022-12-03T11:48:24.761Z,8.40
2022-12-03T11:51:20.476Z,7.83
2022-12-03T11:54:18.881Z,8.80
2022-12-03T11:57:26.309Z,8.93
2022-12-03T12:00:19.761Z,8.73
2022-12-03T12:03:23.727Z,7.67
2022-12-03T12:06:11.930Z,9.23
2022-12-03T12:08:59.747Z,9.60
2022-12-03T12:11:46.191Z,9.40
2022-12-03T12:14:32.478Z,9.47
2022-12-03T12:17:36.589Z,7.77
2022-12-03T12:20:27.923Z,8.60
2022-12-03T12:23:28.071Z,8.83
2022-12-03T12:26:14.877Z,8.83
2022-12-03T12:29:01.557Z,8.33
2022-12-03T12:31:54.134Z,7.87
2022-12-03T12:34:50.426Z,7.50
2022-12-03T12:37:47.727Z,7.17
2022-12-03T12:40:38.324Z,7.87
2022-12-03T12:43:31.686Z,7.80
2022-12-03T12:46:46.690Z,7.93
2022-12-03T12:49:26.934Z,7.23
2022-12-03T12:52:14.955Z,9.03
2022-12-03T12:55:04.883Z,6.83
2022-12-03T12:57:51.974Z,7.60
2022-12-03T13:00:38.721Z,7.53
2022-12-03T13:03:28.665Z,7.50
2022-12-03T13:06:16.747Z,7.93
2022-12-03T13:09:03.070Z,6.67
2022-12-03T13:12:00.760Z,10.00
2022-12-03T13:14:47.707Z,10.53
2022-12-03T13:17:34.439Z,9.43
2022-12-03T13:20:21.032Z,11.47
2022-12-03T13:23:22.450Z,7.40
2022-12-03T13:26:39.092Z,6.57
2022-12-03T13:29:27.453Z,8.73
2022-12-03T13:32:16.676Z,8.70
2022-12-03T13:35:11.833Z,7.67
2022-12-03T13:37:59.122Z,7.63
2022-12-03T13:40:46.127Z,7.53
2022-12-03T13:43:39.904Z,8.33
2022-12-03T13:46:34.581Z,7.43
2022-12-03T13:49:23.931Z,7.70
2022-12-03T13:52:16.207Z,9.93
2022-12-03T13:55:03.868Z,7.43
2022-12-03T13:57:50.317Z,7.07
2022-12-03T14:00:37.583Z,9.17
2022-12-03T14:03:24.294Z,8.33
2022-12-03T14:06:10.664Z,8.00
2022-12-03T14:08:57.319Z,8.10
2022-12-03T14:12:02.213Z,8.77
2022-12-03T14:14:48.875Z,8.07
2022-12-03T14:17:35.437Z,9.57
2022-12-03T14:20:22.123Z,10.17
2022-12-03T14:23:08.559Z,9.43
2022-12-03T14:25:55.261Z,9.63
2022-12-03T14:28:41.974Z,8.23
2022-12-03T14:31:28.768Z,10.20
2022-12-03T14:34:15.474Z,8.13
2022-12-03T14:37:04.907Z,9.03
2022-12-03T14:39:51.276Z,9.13
2022-12-03T14:42:37.988Z,8.37
2022-12-03T14:45:26.112Z,7.43
2022-12-03T14:48:12.584Z,9.50
2022-12-03T14:50:59.787Z,8.27
2022-12-03T14:53:46.259Z,9.33
2022-12-03T14:56:32.520Z,9.13
2022-12-03T14:59:24.411Z,10.70
2022-12-03T15:02:16.783Z,9.67
2022-12-03T15:05:03.825Z,9.10
2022-12-03T15:07:50.508Z,9.70
2022-12-03T15:10:37.125Z,8.13
2022-12-03T15:13:23.817Z,8.93
2022-12-03T15:16:10.139Z,8.57
2022-12-03T15:18:56.968Z,10.17
2022-12-03T15:21:43.658Z,10.57
2022-12-03T15:24:31.304Z,8.63
2022-12-03T15:27:18.179Z,8.77
2022-12-03T15:30:06.089Z,10.10
2022-12-03T15:32:52.600Z,10.17
2022-12-03T15:35:39.338Z,8.57
2022-12-03T15:38:26.797Z,7.10
2022-12-03T15:41:24.543Z,9.00
2022-12-03T15:44:10.790Z,8.53
2022-12-03T15:46:57.101Z,9.33
2022-12-03T15:49:43.409Z,10.33
2022-12-03T15:52:29.913Z,8.50
2022-12-03T15:55:21.715Z,8.60
2022-12-03T15:58:08.439Z,8.57
2022-12-03T16:00:55.063Z,8.00
2022-12-03T16:03:41.887Z,8.53
2022-12-03T16:06:28.300Z,9.73
2022-12-03T16:09:14.871Z,8.07
2022-12-03T16:12:01.286Z,9.10
2022-12-03T16:14:47.905Z,9.13
2022-12-03T16:17:34.322Z,8.70
2022-12-03T16:20:20.580Z,10.30
2022-12-03T16:23:07.197Z,7.43
2022-12-03T16:25:53.854Z,8.17
2022-12-03T16:28:40.159Z,9.70
2022-12-03T16:31:26.951Z,8.13
2022-12-03T16:34:13.392Z,7.67
2022-12-03T16:36:59.990Z,7.27
2022-12-03T16:39:46.625Z,8.80
2022-12-03T16:42:33.498Z,6.70
2022-12-03T16:45:51.626Z,7.40
2022-12-03T16:48:38.313Z,8.60
2022-12-03T16:51:30.303Z,7.50
2022-12-03T16:54:17.037Z,9.10
2022-12-03T16:57:04.334Z,7.80
2022-12-03T16:59:51.179Z,9.67
2022-12-03T17:02:38.920Z,7.87
2022-12-03T17:05:27.629Z,7.13
2022-12-03T17:08:16.367Z,7.57
2022-12-03T17:11:04.194Z,11.80
2022-12-03T17:13:50.568Z,9.83
2022-12-03T17:16:37.249Z,7.57
2022-12-03T17:19:24.649Z,9.53
2022-12-03T17:22:11.229Z,8.17
2022-12-03T17:24:57.607Z,10.03
2022-12-03T17:27:45.486Z,6.50
2022-12-03T17:30:32.348Z,6.30
2022-12-03T17:33:18.932Z,7.37
2022-12-03T17:36:06.129Z,7.93
2022-12-03T17:38:52.471Z,7.60
2022-12-03T17:41:38.867Z,7.90
2022-12-03T17:44:25.472Z,5.93
2022-12-03T17:47:13.799Z,8.07
2022-12-03T17:50:00.379Z,6.50
2022-12-03T17:52:46.702Z,6.67
2022-12-03T17:55:38.532Z,7.63
2022-12-03T17:58:29.771Z,7.77
2022-12-03T18:01:16.109Z,7.37
2022-12-03T18:04:02.990Z,6.90
2022-12-03T18:06:49.601Z,8.60
2022-12-03T18:09:36.222Z,8.60
2022-12-03T18:12:22.674Z,7.77
2022-12-03T18:15:10.450Z,9.10
2022-12-03T18:17:56.991Z,7.47
2022-12-03T18:20:43.629Z,8.87
2022-12-03T18:23:30.809Z,7.13
2022-12-03T18:26:17.098Z,8.83
2022-12-03T18:29:03.797Z,7.23
2022-12-03T18:31:50.231Z,7.43
2022-12-03T18:34:36.804Z,9.27
2022-12-03T18:37:27.254Z,9.40
2022-12-03T18:40:27.244Z,7.70
2022-12-03T18:43:15.807Z,6.47
2022-12-03T18:46:04.378Z,7.03
2022-12-03T18:48:51.070Z,8.80
2022-12-03T18:51:37.772Z,8.17
2022-12-03T18:54:24.379Z,8.53
2022-12-03T18:57:11.016Z,9.70
2022-12-03T18:59:58.320Z,7.50
2022-12-03T19:03:02.578Z,10.13
2022-12-03T19:05:50.231Z,8.17
2022-12-03T19:08:36.946Z,8.33
2022-12-03T19:11:23.839Z,8.67
2022-12-03T19:14:11.060Z,10.47
2022-12-03T19:16:57.456Z,9.63
2022-12-03T19:19:44.159Z,10.97
2022-12-03T19:22:30.501Z,7.90
2022-12-03T19:25:18.984Z,9.53
2022-12-03T19:28:07.250Z,9.23
2022-12-03T19:31:02.469Z,9.87
2022-12-03T19:33:49.284Z,9.40
2022-12-03T19:36:35.741Z,9.77
2022-12-03T19:39:22.596Z,8.57
2022-12-03T19:42:10.049Z,9.20
2022-12-03T19:44:56.482Z,9.37
2022-12-03T19:47:42.966Z,10.03
2022-12-03T19:50:30.720Z,8.10
2022-12-03T19:53:17.773Z,8.60
2022-12-03T19:56:06.285Z,10.83
2022-12-03T19:58:55.396Z,10.50
2022-12-03T20:01:43.438Z,9.83
2022-12-03T20:04:30.318Z,10.33
2022-12-03T20:07:18.077Z,11.07
2022-12-03T20:10:05.856Z,10.20
2022-12-03T20:12:52.479Z,9.63
2022-12-03T20:15:38.909Z,10.17
2022-12-03T20:18:27.636Z,11.27
2022-12-03T20:21:16.284Z,11.63
2022-12-03T20:24:03.726Z,11.87
2022-12-03T20:26:50.200Z,10.40
2022-12-03T20:29:36.655Z,10.70
2022-12-03T20:32:23.081Z,10.57
2022-12-03T20:35:09.963Z,8.53
2022-12-03T20:37:56.377Z,9.93
2022-12-03T20:40:42.941Z,11.50
2022-12-03T20:43:29.806Z,10.90
2022-12-03T20:46:28.846Z,12.97
2022-12-03T20:49:15.623Z,10.80
2022-12-03T20:52:04.579Z,12.23
2022-12-03T20:54:51.616Z,7.80
2022-12-03T20:57:38.350Z,10.00
2022-12-03T21:00:25.204Z,10.30
2022-12-03T21:03:11.586Z,11.27
2022-12-03T21:06:01.375Z,10.70
2022-12-03T21:08:47.810Z,9.97
2022-12-03T21:11:36.193Z,10.70
2022-12-03T21:14:23.096Z,10.13
2022-12-03T21:17:10.237Z,9.10
2022-12-03T21:19:57.333Z,11.40
2022-12-03T21:22:44.180Z,9.63
2022-12-03T21:25:31.167Z,11.00
2022-12-03T21:28:17.815Z,8.47
2022-12-03T21:31:07.357Z,9.37
2022-12-03T21:33:55.553Z,9.33
2022-12-03T21:36:42.341Z,8.67
2022-12-03T21:39:29.108Z,8.37
2022-12-03T21:42:34.530Z,9.83
2022-12-03T21:45:25.094Z,9.93
2022-12-03T21:48:12.333Z,8.97
2022-12-03T21:51:06.934Z,8.63
2022-12-03T21:53:53.527Z,7.40
2022-12-03T21:56:39.879Z,7.00
2022-12-03T21:59:26.623Z,9.00
2022-12-03T22:02:13.497Z,9.70
2022-12-03T22:05:00.255Z,7.50
2022-12-03T22:07:47.767Z,8.97
2022-12-03T22:10:35.831Z,8.77
2022-12-03T22:13:22.044Z,8.37
2022-12-03T22:16:12.094Z,8.93
2022-12-03T22:18:58.927Z,8.03
2022-12-03T22:21:46.495Z,8.53
2022-12-03T22:24:32.844Z,8.93
2022-12-03T22:27:19.216Z,8.37
2022-12-03T22:30:06.982Z,9.37
2022-12-03T22:32:53.288Z,9.73
2022-12-03T22:35:39.977Z,10.27
2022-12-03T22:38:26.801Z,8.07
2022-12-03T22:41:14.561Z,8.10
2022-12-03T22:44:01.198Z,8.60
2022-12-03T22:46:48.098Z,8.47
2022-12-03T22:49:35.005Z,7.50
2022-12-03T22:52:21.600Z,8.60
2022-12-03T22:55:09.131Z,7.50
2022-12-03T22:57:56.009Z,9.83
2022-12-03T23:00:42.291Z,9.57
2022-12-03T23:03:28.719Z,8.37
2022-12-03T23:06:15.813Z,9.37
2022-12-03T23:09:04.030Z,7.93
2022-12-03T23:11:50.926Z,8.30
2022-12-03T23:14:37.530Z,9.40
2022-12-03T23:17:23.629Z,8.50
2022-12-03T23:20:10.769Z,9.07
2022-12-03T23:22:57.633Z,8.73
2022-12-03T23:25:44.194Z,8.23
2022-12-03T23:28:32.785Z,10.67
2022-12-03T23:31:28.796Z,9.77
2022-12-03T23:34:15.390Z,8.33
2022-12-03T23:37:03.380Z,8.70
2022-12-03T23:39:49.831Z,8.87
2022-12-03T23:42:36.536Z,9.43
2022-12-03T23:45:23.650Z,8.93
2022-12-03T23:48:10.099Z,9.07
2022-12-03T23:50:56.326Z,10.97
2022-12-03T23:53:43.139Z,8.53
2022-12-03T23:56:30.900Z,8.53
2022-12-03T23:59:17.760Z,10.27
